Time;durP1;ratioP1;P1;durP2;ratioP2;P2;SDS_P1;SDS_P2;PMS_P1;PMS_P2;Temp;Humidity;BMP_temperature;BMP_pressure;BME280_temperature;BME280_humidity;BME280_pressure;Samples;Min_cycle;Max_cycle;Signal;HPM_P1;HPM_P2
2022/07/29 00:00:23;;;;;;;11.50;4.00;;;;;;;15.80;71.94;99981.17;103828;1287;24019;-54
2022/07/29 00:02:50;;;;;;;9.70;3.80;;;;;;;15.77;71.99;99981.57;103579;1287;24038;-54
2022/07/29 00:05:17;;;;;;;8.70;4.00;;;;;;;15.74;71.97;99977.98;103554;1287;137952;-54
2022/07/29 00:07:43;;;;;;;9.40;3.60;;;;;;;15.71;72.21;99980.06;103702;1287;23308;-54
2022/07/29 00:10:10;;;;;;;10.30;3.50;;;;;;;15.67;72.09;99980.40;103559;1287;139392;-54
2022/07/29 00:12:37;;;;;;;11.00;3.80;;;;;;;15.66;72.14;99982.05;103517;1287;27411;-54
2022/07/29 00:15:05;;;;;;;8.60;4.20;;;;;;;15.64;72.36;99982.27;103689;1287;24288;-55
2022/07/29 00:17:33;;;;;;;5.80;3.20;;;;;;;15.60;72.26;99979.31;107645;1286;138300;-54
2022/07/29 00:20:00;;;;;;;6.60;3.60;;;;;;;15.58;72.46;99977.80;107955;1286;23195;-54
2022/07/29 00:22:27;;;;;;;10.70;4.50;;;;;;;15.53;72.56;99973.18;107760;1286;139001;-55
2022/07/29 00:24:54;;;;;;;5.50;3.70;;;;;;;15.53;72.69;99972.61;107928;1286;22562;-55
2022/07/29 00:27:21;;;;;;;10.80;3.60;;;;;;;15.51;72.79;99970.58;107805;1286;22475;-55
2022/07/29 00:29:48;;;;;;;12.40;4.40;;;;;;;15.50;72.93;99974.38;107848;1286;22556;-54
2022/07/29 00:32:15;;;;;;;9.20;4.60;;;;;;;15.49;72.92;99972.79;107757;1287;22429;-55
2022/07/29 00:37:27;;;;;;;15.70;5.00;;;;;;;15.47;73.16;99970.86;107829;1286;22452;-54
2022/07/29 00:39:54;;;;;;;11.10;5.40;;;;;;;15.46;73.26;99971.04;107767;1287;139524;-55
2022/07/29 00:42:20;;;;;;;14.30;5.80;;;;;;;15.44;73.39;99976.08;107754;1287;22429;-54
2022/07/29 00:44:47;;;;;;;14.80;5.10;;;;;;;15.44;73.50;99974.01;107811;1286;22487;-53
2022/07/29 00:47:14;;;;;;;16.90;5.70;;;;;;;15.44;73.68;99974.02;104196;1287;139383;-53
2022/07/29 00:49:41;;;;;;;18.00;5.60;;;;;;;15.43;73.71;99975.02;103726;1287;22595;-53
2022/07/29 00:52:08;;;;;;;16.40;5.70;;;;;;;15.42;73.76;99975.30;103532;1287;138657;-53
2022/07/29 00:54:35;;;;;;;11.00;5.30;;;;;;;15.40;73.72;99973.54;103562;1289;22566;-53
2022/07/29 00:57:11;;;;;;;10.00;5.40;;;;;;;15.37;73.79;99967.83;103623;1288;23051;-53
2022/07/29 00:59:37;;;;;;;13.30;4.90;;;;;;;15.36;73.60;99969.15;103661;1287;139705;-53
2022/07/29 01:02:04;;;;;;;11.30;5.30;;;;;;;15.35;73.59;99966.89;103731;1287;22787;-53
2022/07/29 01:04:31;;;;;;;10.00;5.40;;;;;;;15.32;73.51;99964.10;103632;1287;139541;-53
2022/07/29 01:06:59;;;;;;;11.50;5.00;;;;;;;15.29;73.41;99963.41;103702;1286;22777;-53
2022/07/29 01:09:26;;;;;;;10.60;5.40;;;;;;;15.27;73.56;99968.23;103568;1287;138744;-52
2022/07/29 01:12:17;;;;;;;15.30;4.90;;;;;;;15.24;73.55;99967.75;103573;1288;22582;-53
2022/07/29 01:14:44;;;;;;;10.50;4.60;;;;;;;15.20;73.65;99963.98;103606;1287;24298;-53
2022/07/29 01:17:21;;;;;;;9.90;4.50;;;;;;;15.20;73.77;99967.64;103553;1289;137921;-50
2022/07/29 01:19:48;;;;;;;;;;;;;;;15.18;73.91;99965.89;103674;1287;24606;-49
2022/07/29 01:22:27;;;;;;;12.00;5.30;;;;;;;15.15;73.91;99963.64;103659;1287;124393;-49
2022/07/29 01:25:12;;;;;;;14.80;5.90;;;;;;;15.12;74.01;99963.72;103785;1287;22566;-49
2022/07/29 01:27:54;;;;;;;16.70;5.90;;;;;;;15.09;74.17;99967.94;103585;1288;138210;-49
2022/07/29 01:30:22;;;;;;;11.00;5.60;;;;;;;15.07;74.06;99971.34;103723;1287;22585;-51
2022/07/29 01:32:50;;;;;;;16.00;5.40;;;;;;;15.03;74.20;99962.68;103603;1289;22626;-51
2022/07/29 01:35:24;;;;;;;19.20;6.40;;;;;;;15.03;74.19;99967.88;103628;1287;138814;-51
2022/07/29 01:38:01;;;;;;;17.30;5.50;;;;;;;15.00;74.36;99968.59;107829;1286;22480;-51
2022/07/29 01:40:29;;;;;;;19.30;5.20;;;;;;;15.00;74.52;99969.16;107611;1287;139243;-51
2022/07/29 01:42:57;;;;;;;14.10;5.90;;;;;;;14.97;74.61;99969.17;107720;1286;23589;-51
2022/07/29 01:45:31;;;;;;;21.90;6.20;;;;;;;14.97;74.67;99964.83;107575;1286;138759;-51
2022/07/29 01:48:02;;;;;;;23.00;5.90;;;;;;;14.96;74.67;99968.08;107753;1287;22540;-51
2022/07/29 01:50:41;;;;;;;23.80;5.60;;;;;;;14.95;74.70;99968.11;107742;1286;22445;-50
2022/07/29 01:53:09;;;;;;;14.20;4.60;;;;;;;14.94;74.74;99967.41;107817;1286;140425;-50
2022/07/29 01:55:39;;;;;;;17.30;5.10;;;;;;;14.92;74.82;99969.61;107819;1286;22504;-51
2022/07/29 01:58:05;;;;;;;17.90;4.40;;;;;;;14.91;74.84;99967.52;107370;1287;138729;-50
2022/07/29 02:00:33;;;;;;;9.10;3.90;;;;;;;14.90;74.77;99969.16;107555;1286;22498;-51
2022/07/29 02:03:11;;;;;;;11.10;5.00;;;;;;;14.89;74.76;99970.09;107952;1286;22483;-50
2022/07/29 02:05:39;;;;;;;10.90;4.60;;;;;;;14.87;74.74;99972.89;107660;1287;139235;-51
2022/07/29 02:08:05;;;;;;;10.70;5.30;;;;;;;14.83;74.75;99967.74;107808;1287;22463;-51
2022/07/29 02:10:33;;;;;;;9.00;4.60;;;;;;;14.83;74.77;99973.67;107766;1287;138639;-51
2022/07/29 02:12:59;;;;;;;9.90;5.10;;;;;;;14.82;74.79;99975.88;107890;1287;22613;-51
2022/07/29 02:15:27;;;;;;;9.30;5.60;;;;;;;14.79;74.73;99976.58;107650;1286;140199;-50
2022/07/29 02:18:15;;;;;;;9.30;4.60;;;;;;;14.79;74.72;99981.73;107659;1287;23112;-50
2022/07/29 02:20:47;;;;;;;10.90;4.60;;;;;;;14.77;74.93;99982.22;107726;1288;22892;-51
2022/07/29 02:23:16;;;;;;;10.90;4.30;;;;;;;14.76;74.92;99984.91;107423;1287;138597;-51
2022/07/29 02:25:42;;;;;;;10.30;4.30;;;;;;;14.74;74.96;99980.35;107762;1287;22480;-51
2022/07/29 02:28:10;;;;;;;9.00;3.80;;;;;;;14.73;75.03;99982.98;107687;1287;138211;-51
2022/07/29 02:30:40;;;;;;;8.70;4.20;;;;;;;14.72;75.16;99983.77;107738;1287;22484;-51
2022/07/29 02:33:08;;;;;;;10.60;5.10;;;;;;;14.71;75.16;99981.79;107557;1288;22492;-51
2022/07/29 02:35:35;;;;;;;14.80;5.00;;;;;;;14.71;75.25;99981.14;107585;1287;139312;-51
2022/07/29 02:40:47;;;;;;;12.50;4.30;;;;;;;14.70;75.36;99979.45;107546;1287;139224;-51
2022/07/29 02:43:14;;;;;;;8.20;4.70;;;;;;;14.70;75.37;99980.15;107757;1287;22477;-51
2022/07/29 02:45:41;;;;;;;14.80;5.20;;;;;;;14.70;75.53;99984.55;107931;1287;139455;-51
2022/07/29 02:48:10;;;;;;;9.80;4.20;;;;;;;14.70;75.64;99985.64;107849;1287;22427;-51
2022/07/29 02:50:39;;;;;;;10.70;4.50;;;;;;;14.71;75.77;99986.56;107944;1286;23346;-51
2022/07/29 02:53:33;;;;;;;10.40;4.30;;;;;;;14.72;75.63;99985.29;107894;1287;138070;-51
2022/07/29 02:56:10;;;;;;;10.50;4.80;;;;;;;14.73;75.58;99984.73;106397;1287;22715;-50
2022/07/29 02:58:45;;;;;;;14.00;5.30;;;;;;;14.74;75.63;99986.66;103561;1287;139964;-50
2022/07/29 03:01:18;;;;;;;12.80;4.80;;;;;;;14.75;75.69;99985.73;103865;1287;22618;-50
2022/07/29 03:03:48;;;;;;;11.90;4.80;;;;;;;14.77;75.79;99989.46;108268;1284;138679;-51
2022/07/29 03:06:15;;;;;;;14.20;5.40;;;;;;;14.78;75.87;99990.56;108185;1283;25134;-50
2022/07/29 03:09:02;;;;;;;14.20;5.30;;;;;;;14.79;75.86;99991.99;108318;1283;25071;-51
2022/07/29 03:11:34;;;;;;;15.20;6.70;;;;;;;14.80;75.94;99991.51;108254;1282;139286;-49
2022/07/29 03:14:17;;;;;;;11.90;6.00;;;;;;;14.83;76.16;99994.41;108364;1282;22526;-50
2022/07/29 03:16:44;;;;;;;13.90;6.80;;;;;;;14.86;76.33;99997.80;107998;1284;139826;-50
2022/07/29 03:19:11;;;;;;;10.40;6.50;;;;;;;14.89;76.31;99998.19;108154;1284;22569;-50
2022/07/29 03:21:38;;;;;;;14.40;6.50;;;;;;;14.91;76.38;99995.01;108018;1284;138878;-49
2022/07/29 03:24:05;;;;;;;19.90;9.00;;;;;;;14.98;76.43;99993.38;108351;1283;22400;-50
2022/07/29 03:26:36;;;;;;;31.00;12.20;;;;;;;15.03;76.64;99992.26;108252;1281;22477;-50
2022/07/29 03:29:03;;;;;;;35.20;13.40;;;;;;;15.08;76.74;99990.73;108269;1284;139392;-50
2022/07/29 03:31:30;;;;;;;36.40;16.30;;;;;;;15.14;76.95;99993.73;108478;1281;23475;-50
2022/07/29 03:33:59;;;;;;;33.00;13.90;;;;;;;15.19;77.08;99993.39;108163;1283;140647;-50
2022/07/29 03:36:25;;;;;;;32.50;12.00;;;;;;;15.26;77.21;99994.65;108247;1284;22487;-51
2022/07/29 03:38:52;;;;;;;24.70;10.80;;;;;;;15.29;77.31;99989.91;108391;1281;23239;-51
2022/07/29 03:41:19;;;;;;;24.90;10.90;;;;;;;15.38;77.20;99989.85;108174;1283;140315;-51
2022/07/29 03:43:48;;;;;;;19.20;8.60;;;;;;;15.45;77.44;99992.02;108256;1283;23760;-51
2022/07/29 03:46:15;;;;;;;22.50;10.30;;;;;;;15.52;77.56;99991.73;107990;1284;138505;-51
2022/07/29 03:48:42;;;;;;;17.70;9.30;;;;;;;15.62;77.65;99988.33;108370;1283;23211;-51
2022/07/29 03:51:09;;;;;;;19.30;9.10;;;;;;;15.70;77.73;99993.36;108100;1284;23307;-51
2022/07/29 03:53:36;;;;;;;17.20;8.80;;;;;;;15.79;77.74;99991.17;108119;1284;139174;-51
2022/07/29 03:56:03;;;;;;;16.80;8.90;;;;;;;15.87;77.76;99993.84;108359;1283;22481;-50
2022/07/29 03:58:30;;;;;;;20.80;9.50;;;;;;;15.97;77.84;99997.76;108233;1283;138325;-50
2022/07/29 04:00:57;;;;;;;17.90;10.10;;;;;;;16.05;78.08;99995.95;108096;1284;22488;-50
2022/07/29 04:03:24;;;;;;;17.00;8.90;;;;;;;16.15;77.79;99993.59;107890;1284;139995;-51
2022/07/29 04:06:05;;;;;;;16.70;8.70;;;;;;;16.25;77.38;99996.13;108152;1283;22464;-50
2022/07/29 04:08:33;;;;;;;16.80;8.40;;;;;;;16.36;77.26;99993.91;108281;1283;25042;-50
2022/07/29 04:11:00;;;;;;;14.50;8.30;;;;;;;16.45;76.99;99991.88;108188;1283;138434;-51
2022/07/29 04:13:27;;;;;;;19.30;8.50;;;;;;;16.56;77.16;99993.06;108277;1282;22440;-50
2022/07/29 04:15:54;;;;;;;15.40;7.90;;;;;;;16.67;77.17;99986.69;108243;1283;139951;-50
2022/07/29 04:18:21;;;;;;;20.20;9.70;;;;;;;16.78;76.00;99981.97;109027;1274;22405;-50
2022/07/29 04:20:48;;;;;;;18.50;8.90;;;;;;;16.93;74.28;99983.27;109083;1274;22449;-52
2022/07/29 04:23:14;;;;;;;15.20;8.20;;;;;;;17.10;72.25;99982.68;108824;1274;138822;-50
2022/07/29 04:25:41;;;;;;;10.60;5.80;;;;;;;17.28;70.82;99981.45;108999;1274;22597;-50
2022/07/29 04:28:09;;;;;;;5.50;3.00;;;;;;;17.45;69.60;99984.54;108896;1274;141485;-50
2022/07/29 04:30:36;;;;;;;6.20;2.80;;;;;;;17.64;67.96;99985.56;109097;1274;22494;-50
2022/07/29 04:33:04;;;;;;;8.20;3.80;;;;;;;17.82;67.15;99986.52;109052;1274;23297;-51
2022/07/29 04:35:33;;;;;;;6.90;4.30;;;;;;;17.98;65.80;99987.45;108903;1274;138746;-51
2022/07/29 04:38:04;;;;;;;7.10;3.90;;;;;;;18.13;65.55;99989.41;108987;1274;22471;-51
2022/07/29 04:40:32;;;;;;;13.00;4.90;;;;;;;18.26;65.54;99988.97;108960;1274;139512;-51
2022/07/29 04:43:00;;;;;;;7.40;4.80;;;;;;;18.38;64.52;99992.59;109118;1273;22464;-51
2022/07/29 04:45:31;;;;;;;5.00;2.20;;;;;;;18.52;63.26;99990.30;108963;1274;137722;-51
2022/07/29 04:47:58;;;;;;;5.40;2.10;;;;;;;18.65;62.22;99989.30;109013;1274;22484;-50
2022/07/29 04:50:25;;;;;;;2.90;1.70;;;;;;;18.79;61.88;99992.27;108992;1274;22476;-51
2022/07/29 04:52:51;;;;;;;6.10;1.80;;;;;;;18.89;61.37;99988.36;108980;1274;137234;-51
2022/07/29 04:55:18;;;;;;;3.40;1.40;;;;;;;18.98;60.75;99989.86;109052;1274;22401;-51
2022/07/29 04:57:45;;;;;;;2.70;1.80;;;;;;;19.04;60.23;99984.23;108969;1274;139801;-51
2022/07/29 05:00:12;;;;;;;2.30;1.50;;;;;;;19.10;59.67;99982.59;109064;1274;23321;-51
2022/07/29 05:02:39;;;;;;;5.60;1.90;;;;;;;19.21;59.07;99987.64;109087;1274;23340;-51
2022/07/29 05:05:06;;;;;;;3.60;2.00;;;;;;;19.35;58.99;99986.17;108944;1274;137697;-51
2022/07/29 05:07:33;;;;;;;12.90;2.30;;;;;;;19.46;58.63;99980.92;109038;1274;22436;-51
2022/07/29 05:10:00;;;;;;;8.10;1.70;;;;;;;19.57;58.46;99978.15;108873;1274;137794;-51
2022/07/29 05:12:27;;;;;;;2.80;1.30;;;;;;;19.67;58.03;99978.50;108962;1274;22415;-51
2022/07/29 05:14:54;;;;;;;8.50;2.00;;;;;;;19.78;57.65;99979.94;108947;1274;23252;-51
2022/07/29 05:17:21;;;;;;;4.50;1.60;;;;;;;19.92;57.40;99980.35;104969;1274;138659;-51
2022/07/29 05:19:48;;;;;;;6.60;1.60;;;;;;;20.11;57.08;99983.55;104833;1274;22563;-51
2022/07/29 05:22:15;;;;;;;4.10;1.80;;;;;;;20.31;56.75;99985.44;104662;1274;137439;-51
2022/07/29 05:24:41;;;;;;;4.10;1.70;;;;;;;20.52;56.22;99984.72;104815;1274;22769;-51
2022/07/29 05:27:09;;;;;;;11.30;2.60;;;;;;;20.78;55.61;99987.67;104813;1274;25451;-51
2022/07/29 05:29:36;;;;;;;4.60;1.90;;;;;;;21.04;54.73;99989.06;104650;1274;137873;-51
2022/07/29 05:32:12;;;;;;;3.80;1.80;;;;;;;21.30;54.45;99985.92;104736;1275;22832;-50
2022/07/29 05:34:39;;;;;;;3.00;1.50;;;;;;;21.62;52.94;99987.93;104726;1274;137515;-51
2022/07/29 05:37:20;;;;;;;4.80;2.30;;;;;;;21.92;52.11;99983.15;104753;1274;25000;-50
2022/07/29 05:39:47;;;;;;;4.20;1.60;;;;;;;22.21;51.43;99982.20;104636;1274;139239;-51
2022/07/29 05:42:22;;;;;;;4.20;1.90;;;;;;;22.48;50.48;99978.02;104842;1274;25442;-51
2022/07/29 05:44:48;;;;;;;2.80;1.40;;;;;;;22.71;49.77;99979.91;104768;1274;25495;-51
2022/07/29 05:47:15;;;;;;;3.20;1.70;;;;;;;22.96;49.22;99982.70;104779;1274;137827;-51
2022/07/29 05:49:42;;;;;;;3.00;1.80;;;;;;;23.18;48.67;99984.06;104885;1274;23026;-51
2022/07/29 05:52:09;;;;;;;7.30;2.00;;;;;;;23.43;47.76;99988.39;104763;1274;138622;-51
2022/07/29 05:54:36;;;;;;;4.60;1.90;;;;;;;23.68;46.95;99984.36;104647;1274;23141;-51
2022/07/29 05:57:03;;;;;;;7.70;1.90;;;;;;;23.90;46.28;99981.23;104763;1274;22593;-51
2022/07/29 05:59:30;;;;;;;3.30;1.70;;;;;;;24.14;45.27;99981.33;104597;1274;138467;-52
2022/07/29 06:01:57;;;;;;;14.20;4.20;;;;;;;24.34;44.64;99979.06;104744;1274;22591;-51
2022/07/29 06:04:24;;;;;;;4.50;2.50;;;;;;;24.52;44.48;99982.63;104523;1274;137750;-52
2022/07/29 06:06:51;;;;;;;9.60;3.20;;;;;;;24.68;43.87;99980.92;104648;1274;24294;-51
2022/07/29 06:09:18;;;;;;;4.30;2.20;;;;;;;24.81;43.01;99980.05;104671;1274;22563;-52
2022/07/29 06:11:45;;;;;;;7.70;2.20;;;;;;;24.91;42.60;99980.95;104678;1274;138309;-52
2022/07/29 06:14:12;;;;;;;9.00;2.60;;;;;;;24.94;42.79;99976.34;104743;1274;22648;-52
2022/07/29 06:16:39;;;;;;;5.90;2.30;;;;;;;24.92;43.05;99976.95;104838;1274;139853;-51
2022/07/29 06:19:06;;;;;;;3.60;2.00;;;;;;;24.85;42.72;99977.81;104765;1274;27152;-53
2022/07/29 06:21:35;;;;;;;3.40;1.90;;;;;;;24.78;42.87;99976.81;104823;1274;137567;-52
2022/07/29 06:24:07;;;;;;;15.70;3.00;;;;;;;24.72;42.65;99982.01;104854;1275;22646;-52
2022/07/29 06:26:34;;;;;;;4.20;1.90;;;;;;;24.65;43.02;99984.23;104848;1274;22774;-53
2022/07/29 06:29:06;;;;;;;4.30;1.70;;;;;;;24.62;42.75;99988.10;104675;1274;138951;-53
2022/07/29 06:31:33;;;;;;;3.20;2.00;;;;;;;24.55;42.83;99984.41;108908;1274;22479;-54
2022/07/29 06:34:00;;;;;;;4.10;2.30;;;;;;;24.53;42.15;99984.63;108822;1274;138261;-54
2022/07/29 06:36:27;;;;;;;3.00;1.60;;;;;;;24.50;41.96;99985.41;108924;1274;22546;-51
2022/07/29 06:38:54;;;;;;;2.60;2.00;;;;;;;24.48;42.02;99990.50;108931;1274;22441;-51
2022/07/29 06:41:22;;;;;;;5.30;1.80;;;;;;;24.45;41.42;99985.27;108763;1274;138572;-53
2022/07/29 06:43:51;;;;;;;5.60;1.90;;;;;;;24.41;41.31;99988.21;109253;1274;22456;-53
2022/07/29 06:46:21;;;;;;;12.50;2.40;;;;;;;24.34;41.82;99980.95;109252;1274;137952;-53
2022/07/29 06:48:48;;;;;;;11.70;2.10;;;;;;;24.28;42.55;99986.60;109357;1274;22439;-53
2022/07/29 06:51:16;;;;;;;3.90;2.30;;;;;;;24.24;43.43;99986.54;109361;1274;23126;-53
2022/07/29 06:53:50;;;;;;;6.10;2.00;;;;;;;24.22;42.27;99983.09;109259;1274;23463;-53
2022/07/29 06:56:32;;;;;;;3.50;1.60;;;;;;;24.20;42.18;99978.88;109273;1276;23324;-53
2022/07/29 06:59:09;;;;;;;14.50;2.40;;;;;;;24.16;42.29;99974.63;109255;1274;140455;-53
2022/07/29 07:01:36;;;;;;;6.10;2.40;;;;;;;24.11;43.07;99975.02;109460;1273;22462;-53
2022/07/29 07:04:04;;;;;;;2.60;1.70;;;;;;;24.09;43.40;99975.15;109307;1274;137991;-52
2022/07/29 07:06:31;;;;;;;18.30;2.80;;;;;;;24.06;43.65;99978.58;109484;1274;22436;-53
2022/07/29 07:08:57;;;;;;;10.50;2.50;;;;;;;24.05;43.73;99977.95;109485;1274;22492;-53
2022/07/29 07:11:24;;;;;;;6.80;1.90;;;;;;;24.03;43.35;99979.46;109281;1274;138624;-53
2022/07/29 07:13:51;;;;;;;3.30;1.90;;;;;;;24.02;42.96;99980.20;109362;1274;22483;-53
2022/07/29 07:16:18;;;;;;;4.80;1.80;;;;;;;24.04;42.91;99984.34;109369;1274;139167;-53
2022/07/29 07:18:45;;;;;;;8.70;2.60;;;;;;;24.06;43.42;99990.83;109500;1274;22267;-53
2022/07/29 07:21:12;;;;;;;4.80;2.10;;;;;;;24.09;43.83;99989.09;109515;1274;22400;-53
2022/07/29 07:23:45;;;;;;;3.10;1.60;;;;;;;24.11;43.89;99991.36;109341;1274;137911;-53
2022/07/29 07:26:12;;;;;;;5.00;2.10;;;;;;;24.10;43.07;99990.48;109436;1274;22262;-53
2022/07/29 07:28:39;;;;;;;5.80;1.70;;;;;;;24.08;43.35;99993.60;109300;1274;138419;-53
2022/07/29 07:31:06;;;;;;;4.40;2.10;;;;;;;24.08;43.71;99993.89;109481;1274;22505;-53
2022/07/29 07:33:32;;;;;;;5.60;1.90;;;;;;;24.07;44.07;99993.02;109350;1274;138370;-53
2022/07/29 07:36:01;;;;;;;5.60;1.70;;;;;;;24.07;43.71;99988.23;109490;1274;22417;-53
2022/07/29 07:38:28;;;;;;;2.70;1.60;;;;;;;24.07;43.40;99989.96;109386;1274;22427;-52
2022/07/29 07:40:55;;;;;;;4.30;1.70;;;;;;;24.07;43.67;99985.97;109385;1274;137519;-53
2022/07/29 07:43:22;;;;;;;9.00;2.10;;;;;;;24.05;44.02;99992.75;109506;1274;22439;-53
2022/07/29 07:45:49;;;;;;;6.20;2.50;;;;;;;24.06;44.44;99994.77;109382;1274;138086;-53
2022/07/29 07:48:16;;;;;;;7.10;2.30;;;;;;;24.07;44.29;99996.16;109493;1274;22475;-52
2022/07/29 07:50:43;;;;;;;6.10;2.40;;;;;;;24.08;44.11;99996.39;109478;1274;23388;-53
2022/07/29 07:53:10;;;;;;;7.60;2.10;;;;;;;24.09;44.90;99998.18;109312;1274;137616;-53
2022/07/29 07:55:41;;;;;;;4.90;2.30;;;;;;;24.10;44.47;99998.60;109433;1274;23541;-53
2022/07/29 07:58:27;;;;;;;8.40;2.20;;;;;;;24.12;44.14;99996.99;109386;1274;138563;-53
2022/07/29 08:00:54;;;;;;;6.10;2.40;;;;;;;24.12;44.68;99994.60;109496;1274;22498;-53
2022/07/29 08:03:21;;;;;;;3.30;1.70;;;;;;;24.15;45.15;100000.12;109450;1274;23244;-53
2022/07/29 08:05:50;;;;;;;8.60;5.50;;;;;;;24.18;44.74;100003.69;109378;1273;137539;-53
2022/07/29 08:08:17;;;;;;;8.80;4.90;;;;;;;24.22;45.03;100001.88;109472;1274;22471;-53
2022/07/29 08:10:53;;;;;;;6.60;3.20;;;;;;;24.26;44.88;99999.91;109307;1274;137643;-53
2022/07/29 08:13:20;;;;;;;11.30;2.30;;;;;;;24.29;44.81;100004.65;109511;1274;22445;-53
2022/07/29 08:15:57;;;;;;;9.20;2.10;;;;;;;24.33;44.63;100006.54;109327;1274;139669;-53
2022/07/29 08:18:24;;;;;;;6.00;2.00;;;;;;;24.35;44.32;100003.90;109459;1274;22415;-53
2022/07/29 08:20:51;;;;;;;6.20;2.30;;;;;;;24.38;44.53;100002.45;109228;1276;22471;-53
2022/07/29 08:23:18;;;;;;;5.00;2.30;;;;;;;24.40;44.00;99999.86;109351;1274;139198;-53
2022/07/29 08:25:45;;;;;;;4.00;2.10;;;;;;;24.40;44.56;99996.55;109477;1274;22582;-53
2022/07/29 08:28:16;;;;;;;12.90;2.50;;;;;;;24.41;44.43;99993.65;109302;1274;137330;-53
2022/07/29 08:30:43;;;;;;;4.80;2.50;;;;;;;24.43;44.20;99996.95;109490;1273;22351;-54
2022/07/29 08:33:10;;;;;;;6.80;2.30;;;;;;;24.44;44.06;99998.21;109494;1274;23253;-54
2022/07/29 08:35:36;;;;;;;4.30;2.40;;;;;;;24.46;44.45;99993.20;109363;1274;139208;-54
2022/07/29 08:38:03;;;;;;;8.70;2.90;;;;;;;24.49;44.47;99993.02;109279;1274;22526;-55
2022/07/29 08:40:30;;;;;;;14.00;4.70;;;;;;;24.52;44.22;99987.45;109336;1274;139118;-53
2022/07/29 08:42:59;;;;;;;8.80;2.70;;;;;;;24.56;44.52;99992.92;109452;1274;22474;-53
2022/07/29 08:45:26;;;;;;;4.80;2.30;;;;;;;24.58;45.03;99988.35;109320;1274;139386;-53
2022/07/29 08:47:53;;;;;;;6.20;2.40;;;;;;;24.63;44.80;99990.13;109309;1274;22427;-53
2022/07/29 08:50:20;;;;;;;4.70;2.30;;;;;;;24.67;44.48;99992.52;109487;1274;22569;-53
2022/07/29 08:52:46;;;;;;;6.10;2.80;;;;;;;24.71;44.41;99991.58;109373;1274;140130;-53
2022/07/29 08:55:14;;;;;;;5.90;2.70;;;;;;;24.72;43.64;99993.16;109307;1272;23137;-53
2022/07/29 08:57:45;;;;;;;8.60;2.80;;;;;;;24.74;43.86;99995.77;109142;1274;139131;-53
2022/07/29 09:00:19;;;;;;;4.40;2.20;;;;;;;24.75;43.75;99997.23;109492;1274;22474;-53
2022/07/29 09:02:47;;;;;;;8.40;2.90;;;;;;;24.77;43.97;99995.65;109462;1274;22481;-53
2022/07/29 09:05:14;;;;;;;5.60;2.60;;;;;;;24.78;43.83;99993.31;109117;1274;137701;-52
2022/07/29 09:07:43;;;;;;;6.80;2.60;;;;;;;24.79;43.47;99993.92;109318;1274;23192;-53
2022/07/29 09:10:10;;;;;;;5.50;2.10;;;;;;;24.80;42.96;99997.08;109167;1274;137622;-53
2022/07/29 09:12:36;;;;;;;6.20;2.90;;;;;;;24.82;43.28;99994.80;109443;1272;22582;-53
2022/07/29 09:15:04;;;;;;;4.00;2.50;;;;;;;24.85;43.56;100001.13;109369;1274;22434;-53
2022/07/29 09:17:47;;;;;;;6.20;2.20;;;;;;;24.88;43.63;99994.48;109382;1274;137843;-52
2022/07/29 09:20:19;;;;;;;5.10;2.10;;;;;;;24.91;43.14;99995.81;109372;1274;23117;-52
2022/07/29 09:22:48;;;;;;;2.70;1.70;;;;;;;24.94;43.08;100001.36;109367;1274;137939;-53
2022/07/29 09:25:35;;;;;;;5.40;2.00;;;;;;;24.96;42.13;99994.48;109432;1274;22490;-52
2022/07/29 09:28:12;;;;;;;3.90;2.10;;;;;;;24.96;41.69;99998.79;109352;1274;138590;-52
2022/07/29 09:30:50;;;;;;;6.70;2.50;;;;;;;24.97;42.71;99993.15;109408;1274;23380;-53
2022/07/29 09:33:17;;;;;;;8.00;2.40;;;;;;;24.97;42.69;99993.73;109387;1274;22476;-53
2022/07/29 09:35:44;;;;;;;7.00;2.40;;;;;;;25.01;43.23;99994.33;109078;1273;138124;-53
2022/07/29 09:38:23;;;;;;;5.00;2.30;;;;;;;25.06;42.92;99995.41;109003;1274;22464;-53
2022/07/29 09:40:57;;;;;;;3.90;2.20;;;;;;;25.10;43.24;99995.89;108930;1274;137233;-53
2022/07/29 09:43:31;;;;;;;5.50;2.30;;;;;;;25.14;42.05;99993.70;109092;1273;22493;-52
2022/07/29 09:46:13;;;;;;;4.50;2.10;;;;;;;25.16;41.36;99994.16;108943;1274;138498;-53
2022/07/29 09:48:40;;;;;;;6.50;2.60;;;;;;;25.15;41.21;99996.29;109035;1274;24224;-53
2022/07/29 09:51:20;;;;;;;5.50;2.50;;;;;;;25.13;41.41;99990.23;108929;1274;23541;-53
2022/07/29 09:53:55;;;;;;;7.30;2.60;;;;;;;25.14;41.01;99991.54;109041;1274;22447;-53
2022/07/29 09:56:41;;;;;;;4.10;2.10;;;;;;;25.13;41.01;99995.41;109041;1274;22427;-53
2022/07/29 09:59:08;;;;;;;2.60;1.80;;;;;;;25.12;40.90;99993.60;108897;1274;137556;-52
2022/07/29 10:01:35;;;;;;;4.80;2.40;;;;;;;25.09;40.96;99993.45;109074;1274;22467;-53
2022/07/29 10:04:02;;;;;;;2.80;2.30;;;;;;;25.07;40.77;99989.63;108879;1274;138776;-53
2022/07/29 10:06:29;;;;;;;6.60;2.30;;;;;;;25.07;40.85;99984.28;109055;1274;22546;-53
2022/07/29 10:09:08;;;;;;;4.70;2.50;;;;;;;25.07;41.60;99983.09;108979;1274;22497;-53
2022/07/29 10:11:35;;;;;;;3.70;2.40;;;;;;;25.10;41.88;99983.06;108889;1274;138853;-53
2022/07/29 10:14:21;;;;;;;5.90;2.70;;;;;;;25.14;41.59;99979.27;109172;1274;22570;-52
2022/07/29 10:16:48;;;;;;;5.20;2.80;;;;;;;25.15;40.89;99976.61;108882;1274;138481;-52
2022/07/29 10:19:15;;;;;;;3.70;2.50;;;;;;;25.15;41.39;99978.74;109008;1274;22686;-52
2022/07/29 10:21:43;;;;;;;4.60;2.20;;;;;;;25.15;41.66;99974.86;108897;1274;137870;-52
2022/07/29 10:24:10;;;;;;;3.70;2.30;;;;;;;25.16;41.02;99971.39;109073;1274;22580;-53
2022/07/29 10:26:40;;;;;;;3.10;2.20;;;;;;;25.19;41.13;99971.58;108824;1274;22442;-52
2022/07/29 10:29:07;;;;;;;2.90;2.40;;;;;;;25.20;41.59;99970.33;108977;1274;137944;-52
2022/07/29 10:31:44;;;;;;;7.60;2.80;;;;;;;25.21;41.33;99969.66;109014;1274;22441;-52
2022/07/29 10:34:21;;;;;;;4.30;2.60;;;;;;;25.23;41.26;99971.90;108779;1274;139074;-52
2022/07/29 10:37:03;;;;;;;;;;;;;;;25.24;41.95;99969.14;108948;1274;22505;-53
2022/07/29 10:41:25;;;;;;;6.70;3.10;;;;;;;25.24;42.33;99966.18;108932;1274;124394;-52
2022/07/29 10:42:50;;;;;;;9.00;2.70;;;;;;;25.25;43.30;99960.61;109168;1274;22430;-52
2022/07/29 10:45:18;;;;;;;13.00;3.30;;;;;;;25.27;43.44;99959.67;108934;1274;22647;-52
2022/07/29 10:47:44;;;;;;;6.10;3.10;;;;;;;25.29;43.07;99954.80;108764;1274;137423;-52
2022/07/29 10:50:11;;;;;;;4.70;3.00;;;;;;;25.31;43.11;99953.36;108875;1274;22453;-53
2022/07/29 10:52:49;;;;;;;5.20;3.00;;;;;;;25.36;43.74;99950.64;108886;1274;139170;-52
2022/07/29 10:55:39;;;;;;;11.70;3.30;;;;;;;25.43;43.39;99955.02;108821;1274;276592;-52
2022/07/29 10:59:19;;;;;;;7.40;4.20;;;;;;;25.53;43.56;99954.48;101415;1309;545709;-53
2022/07/29 11:01:47;;;;;;;6.30;3.20;;;;;;;25.56;43.31;99955.78;103408;1287;22572;-52
2022/07/29 11:04:45;;;;;;;5.90;2.50;;;;;;;25.60;43.27;99951.74;103339;1289;136855;-52
2022/07/29 11:07:12;;;;;;;3.60;2.50;;;;;;;25.67;42.74;99955.49;102926;1297;22718;-52
2022/07/29 11:09:40;;;;;;;4.10;2.40;;;;;;;25.68;42.63;99951.78;102920;1294;139057;-52
2022/07/29 11:12:35;;;;;;;5.00;2.20;;;;;;;25.74;42.82;99954.41;102701;1294;408700;-51
2022/07/29 11:15:08;;;;;;;9.20;3.70;;;;;;;25.78;43.33;99950.41;102944;1294;22829;-52
2022/07/29 11:17:56;;;;;;;5.50;2.80;;;;;;;25.80;42.13;99949.70;103052;1292;137113;-52
2022/07/29 11:20:35;;;;;;;4.00;2.40;;;;;;;25.82;41.63;99948.63;103105;1294;25421;-54
2022/07/29 11:23:31;;;;;;;5.80;2.90;;;;;;;25.82;41.37;99944.80;102950;1293;137804;-53
2022/07/29 11:26:27;;;;;;;5.00;2.60;;;;;;;25.84;42.46;99948.61;106823;1294;22469;-53
2022/07/29 11:29:05;;;;;;;9.00;2.60;;;;;;;25.82;42.34;99947.02;106929;1293;137026;-53
2022/07/29 11:31:48;;;;;;;4.40;3.00;;;;;;;25.82;42.46;99943.06;106890;1292;22468;-54
2022/07/29 11:34:22;;;;;;;10.20;3.00;;;;;;;25.82;42.65;99938.27;106830;1294;139827;-54
2022/07/29 11:37:14;;;;;;;9.30;2.90;;;;;;;25.81;41.65;99936.81;106827;1293;22489;-52
2022/07/29 11:39:56;;;;;;;8.30;5.00;;;;;;;25.83;42.45;99932.30;106783;1295;138409;-59